sensor_id;sensor_type;location;lat;lon;timestamp;pressure;altitude;pressure_sealevel;temperature;humidity
80566;BME280;69915;54.862;10.730;2024-01-06T00:00:20;100767.91;;;0.46;88.08
80566;BME280;69915;54.862;10.730;2024-01-06T00:02:48;100779.06;;;0.50;87.81
80566;BME280;69915;54.862;10.730;2024-01-06T00:05:14;100828.75;;;0.47;88.42
80566;BME280;69915;54.862;10.730;2024-01-06T00:07:39;100798.56;;;0.45;88.97
80566;BME280;69915;54.862;10.730;2024-01-06T00:10:06;100787.81;;;0.45;89.21
80566;BME280;69915;54.862;10.730;2024-01-06T00:12:32;100797.75;;;0.45;89.33
80566;BME280;69915;54.862;10.730;2024-01-06T00:14:57;100787.00;;;0.45;89.37
80566;BME280;69915;54.862;10.730;2024-01-06T00:17:23;100789.81;;;0.50;89.45
80566;BME280;69915;54.862;10.730;2024-01-06T00:19:48;100803.97;;;0.45;90.12
80566;BME280;69915;54.862;10.730;2024-01-06T00:22:17;100784.06;;;0.46;89.72
80566;BME280;69915;54.862;10.730;2024-01-06T00:24:43;100828.31;;;0.50;89.76
80566;BME280;69915;54.862;10.730;2024-01-06T00:27:09;100806.19;;;0.48;89.59
80566;BME280;69915;54.862;10.730;2024-01-06T00:29:34;100795.66;;;0.47;89.01
80566;BME280;69915;54.862;10.730;2024-01-06T00:32:00;100816.63;;;0.57;89.36
80566;BME280;69915;54.862;10.730;2024-01-06T00:34:25;100792.75;;;0.48;88.98
80566;BME280;69915;54.862;10.730;2024-01-06T00:36:51;100783.16;;;0.52;89.13
80566;BME280;69915;54.862;10.730;2024-01-06T00:39:16;100795.38;;;0.55;89.24
80566;BME280;69915;54.862;10.730;2024-01-06T00:41:42;100802.59;;;0.54;89.63
80566;BME280;69915;54.862;10.730;2024-01-06T00:44:07;100815.44;;;0.52;89.67
80566;BME280;69915;54.862;10.730;2024-01-06T00:46:33;100816.25;;;0.53;89.28
80566;BME280;69915;54.862;10.730;2024-01-06T00:48:58;100812.75;;;0.52;89.75
80566;BME280;69915;54.862;10.730;2024-01-06T00:51:24;100814.19;;;0.55;89.22
80566;BME280;69915;54.862;10.730;2024-01-06T00:53:50;100811.94;;;0.52;89.84
80566;BME280;69915;54.862;10.730;2024-01-06T00:56:15;100810.88;;;0.53;89.40
80566;BME280;69915;54.862;10.730;2024-01-06T00:58:41;100821.44;;;0.54;89.22
80566;BME280;69915;54.862;10.730;2024-01-06T01:01:06;100825.28;;;0.59;89.58
80566;BME280;69915;54.862;10.730;2024-01-06T01:03:33;100831.28;;;0.61;88.36
80566;BME280;69915;54.862;10.730;2024-01-06T01:05:58;100838.47;;;0.67;88.31
80566;BME280;69915;54.862;10.730;2024-01-06T01:08:23;100814.69;;;0.64;87.32
80566;BME280;69915;54.862;10.730;2024-01-06T01:10:49;100815.66;;;0.69;86.46
80566;BME280;69915;54.862;10.730;2024-01-06T01:13:15;100806.19;;;0.67;85.43
80566;BME280;69915;54.862;10.730;2024-01-06T01:15:40;100785.47;;;0.67;83.89
80566;BME280;69915;54.862;10.730;2024-01-06T01:18:06;100783.59;;;0.68;83.39
80566;BME280;69915;54.862;10.730;2024-01-06T01:20:31;100787.47;;;0.72;83.48
80566;BME280;69915;54.862;10.730;2024-01-06T01:22:57;100814.25;;;0.67;83.41
80566;BME280;69915;54.862;10.730;2024-01-06T01:25:22;100806.63;;;0.64;82.92
80566;BME280;69915;54.862;10.730;2024-01-06T01:27:47;100805.72;;;0.70;83.96
80566;BME280;69915;54.862;10.730;2024-01-06T01:30:13;100823.94;;;0.68;84.71
80566;BME280;69915;54.862;10.730;2024-01-06T01:32:39;100820.28;;;0.62;85.54
80566;BME280;69915;54.862;10.730;2024-01-06T01:35:05;100832.34;;;0.60;85.94
80566;BME280;69915;54.862;10.730;2024-01-06T01:37:31;100846.03;;;0.58;85.89
80566;BME280;69915;54.862;10.730;2024-01-06T01:39:57;100845.19;;;0.58;86.16
80566;BME280;69915;54.862;10.730;2024-01-06T01:42:22;100852.66;;;0.55;86.32
80566;BME280;69915;54.862;10.730;2024-01-06T01:44:48;100833.81;;;0.55;86.28
80566;BME280;69915;54.862;10.730;2024-01-06T01:47:13;100840.03;;;0.56;86.13
80566;BME280;69915;54.862;10.730;2024-01-06T01:49:46;100845.56;;;0.61;85.70
80566;BME280;69915;54.862;10.730;2024-01-06T01:52:13;100830.59;;;0.65;85.41
80566;BME280;69915;54.862;10.730;2024-01-06T01:54:40;100838.84;;;0.70;85.11
80566;BME280;69915;54.862;10.730;2024-01-06T01:57:06;100831.84;;;0.81;84.76
80566;BME280;69915;54.862;10.730;2024-01-06T01:59:32;100817.00;;;0.78;83.85
80566;BME280;69915;54.862;10.730;2024-01-06T02:01:59;100823.13;;;0.85;82.83
80566;BME280;69915;54.862;10.730;2024-01-06T02:04:25;100821.09;;;0.81;83.28
80566;BME280;69915;54.862;10.730;2024-01-06T02:06:51;100817.81;;;0.79;82.62
80566;BME280;69915;54.862;10.730;2024-01-06T02:09:16;100809.28;;;0.82;82.59
80566;BME280;69915;54.862;10.730;2024-01-06T02:11:42;100818.78;;;0.84;81.85
80566;BME280;69915;54.862;10.730;2024-01-06T02:14:08;100821.69;;;0.83;81.90
80566;BME280;69915;54.862;10.730;2024-01-06T02:16:33;100836.66;;;0.79;82.34
80566;BME280;69915;54.862;10.730;2024-01-06T02:18:59;100825.66;;;0.80;82.09
80566;BME280;69915;54.862;10.730;2024-01-06T02:21:27;100840.97;;;0.80;82.43
80566;BME280;69915;54.862;10.730;2024-01-06T02:23:53;100844.84;;;0.84;82.72
80566;BME280;69915;54.862;10.730;2024-01-06T02:26:18;100859.22;;;0.78;83.03
80566;BME280;69915;54.862;10.730;2024-01-06T02:28:44;100867.22;;;0.84;83.13
80566;BME280;69915;54.862;10.730;2024-01-06T02:31:13;100860.03;;;0.78;83.13
80566;BME280;69915;54.862;10.730;2024-01-06T02:33:39;100870.56;;;0.80;83.18
80566;BME280;69915;54.862;10.730;2024-01-06T02:36:05;100866.47;;;0.77;83.29
80566;BME280;69915;54.862;10.730;2024-01-06T02:38:30;100867.88;;;0.80;83.76
80566;BME280;69915;54.862;10.730;2024-01-06T02:40:56;100881.56;;;0.78;84.09
80566;BME280;69915;54.862;10.730;2024-01-06T02:43:22;100879.72;;;0.79;83.74
80566;BME280;69915;54.862;10.730;2024-01-06T02:45:48;100868.34;;;0.77;83.39
80566;BME280;69915;54.862;10.730;2024-01-06T02:48:14;100888.16;;;0.82;83.58
80566;BME280;69915;54.862;10.730;2024-01-06T02:50:40;100884.19;;;0.85;84.29
80566;BME280;69915;54.862;10.730;2024-01-06T02:53:05;100888.75;;;0.84;84.02
80566;BME280;69915;54.862;10.730;2024-01-06T02:55:31;100889.13;;;0.88;84.15
80566;BME280;69915;54.862;10.730;2024-01-06T02:57:56;100904.22;;;0.89;84.13
80566;BME280;69915;54.862;10.730;2024-01-06T03:00:22;100891.94;;;0.93;83.43
80566;BME280;69915;54.862;10.730;2024-01-06T03:02:47;100891.94;;;0.93;83.79
80566;BME280;69915;54.862;10.730;2024-01-06T03:05:13;100895.59;;;0.98;84.00
80566;BME280;69915;54.862;10.730;2024-01-06T03:07:38;100906.16;;;1.00;83.45
80566;BME280;69915;54.862;10.730;2024-01-06T03:10:04;100883.66;;;0.94;83.46
80566;BME280;69915;54.862;10.730;2024-01-06T03:12:30;100882.38;;;0.97;82.90
80566;BME280;69915;54.862;10.730;2024-01-06T03:14:55;100889.41;;;0.98;82.64
80566;BME280;69915;54.862;10.730;2024-01-06T03:17:21;100898.28;;;0.98;83.37
80566;BME280;69915;54.862;10.730;2024-01-06T03:19:46;100898.22;;;1.05;82.96
80566;BME280;69915;54.862;10.730;2024-01-06T03:22:12;100888.06;;;1.07;82.51
80566;BME280;69915;54.862;10.730;2024-01-06T03:24:37;100908.03;;;0.99;82.25
80566;BME280;69915;54.862;10.730;2024-01-06T03:27:03;100888.94;;;1.01;82.04
80566;BME280;69915;54.862;10.730;2024-01-06T03:29:41;100889.69;;;1.08;81.97
80566;BME280;69915;54.862;10.730;2024-01-06T03:32:08;100897.94;;;1.13;81.92
80566;BME280;69915;54.862;10.730;2024-01-06T03:34:33;100904.09;;;1.14;82.08
80566;BME280;69915;54.862;10.730;2024-01-06T03:36:59;100906.59;;;1.15;81.60
80566;BME280;69915;54.862;10.730;2024-01-06T03:39:24;100919.00;;;1.16;81.85
80566;BME280;69915;54.862;10.730;2024-01-06T03:41:50;100917.94;;;1.17;81.48
80566;BME280;69915;54.862;10.730;2024-01-06T03:44:15;100917.81;;;1.12;81.53
80566;BME280;69915;54.862;10.730;2024-01-06T03:46:40;100928.13;;;1.15;81.53
80566;BME280;69915;54.862;10.730;2024-01-06T03:49:06;100930.25;;;1.13;81.74
80566;BME280;69915;54.862;10.730;2024-01-06T03:51:31;100905.38;;;1.11;80.72
80566;BME280;69915;54.862;10.730;2024-01-06T03:53:57;100922.75;;;1.15;81.38
80566;BME280;69915;54.862;10.730;2024-01-06T03:56:23;100926.03;;;1.17;81.58
80566;BME280;69915;54.862;10.730;2024-01-06T03:58:48;100927.31;;;1.15;81.74
80566;BME280;69915;54.862;10.730;2024-01-06T04:01:13;100930.44;;;1.12;81.69
80566;BME280;69915;54.862;10.730;2024-01-06T04:03:39;100929.63;;;1.11;81.75
80566;BME280;69915;54.862;10.730;2024-01-06T04:06:07;100938.31;;;1.13;81.17
80566;BME280;69915;54.862;10.730;2024-01-06T04:08:35;100930.13;;;1.20;81.03
80566;BME280;69915;54.862;10.730;2024-01-06T04:11:01;100953.56;;;1.19;81.78
80566;BME280;69915;54.862;10.730;2024-01-06T04:13:26;100938.56;;;1.23;81.70
80566;BME280;69915;54.862;10.730;2024-01-06T04:15:52;100956.78;;;1.28;82.12
80566;BME280;69915;54.862;10.730;2024-01-06T04:18:18;100947.28;;;1.25;82.49
80566;BME280;69915;54.862;10.730;2024-01-06T04:20:43;100937.16;;;1.21;82.65
80566;BME280;69915;54.862;10.730;2024-01-06T04:23:09;100930.03;;;1.26;82.23
80566;BME280;69915;54.862;10.730;2024-01-06T04:25:34;100941.44;;;1.28;82.51
80566;BME280;69915;54.862;10.730;2024-01-06T04:28:00;100939.53;;;1.29;82.61
80566;BME280;69915;54.862;10.730;2024-01-06T04:30:25;100952.56;;;1.32;82.60
80566;BME280;69915;54.862;10.730;2024-01-06T04:32:51;100996.72;;;1.31;82.23
80566;BME280;69915;54.862;10.730;2024-01-06T04:35:17;100964.41;;;1.31;82.68
80566;BME280;69915;54.862;10.730;2024-01-06T04:37:43;100977.03;;;1.30;83.54
80566;BME280;69915;54.862;10.730;2024-01-06T04:40:09;101008.38;;;1.06;86.91
80566;BME280;69915;54.862;10.730;2024-01-06T04:42:35;101013.75;;;0.88;89.25
80566;BME280;69915;54.862;10.730;2024-01-06T04:45:01;101028.75;;;0.78;91.11
80566;BME280;69915;54.862;10.730;2024-01-06T04:47:26;101035.75;;;0.61;92.55
80566;BME280;69915;54.862;10.730;2024-01-06T04:49:53;101032.28;;;0.53;93.00
80566;BME280;69915;54.862;10.730;2024-01-06T04:52:18;101036.91;;;0.46;93.94
80566;BME280;69915;54.862;10.730;2024-01-06T04:54:44;101047.66;;;0.46;94.60
80566;BME280;69915;54.862;10.730;2024-01-06T04:57:09;101047.06;;;0.44;95.52
80566;BME280;69915;54.862;10.730;2024-01-06T04:59:35;101047.34;;;0.36;95.36
80566;BME280;69915;54.862;10.730;2024-01-06T05:02:01;101056.44;;;0.35;95.91
80566;BME280;69915;54.862;10.730;2024-01-06T05:04:26;101022.50;;;0.34;96.51
80566;BME280;69915;54.862;10.730;2024-01-06T05:06:52;101047.34;;;0.36;96.59
80566;BME280;69915;54.862;10.730;2024-01-06T05:09:18;101045.69;;;0.35;97.15
80566;BME280;69915;54.862;10.730;2024-01-06T05:11:44;101062.91;;;0.28;97.46
80566;BME280;69915;54.862;10.730;2024-01-06T05:14:09;101055.66;;;0.28;97.66
80566;BME280;69915;54.862;10.730;2024-01-06T05:16:35;101051.25;;;0.34;97.62
80566;BME280;69915;54.862;10.730;2024-01-06T05:19:00;101028.16;;;0.26;97.55
80566;BME280;69915;54.862;10.730;2024-01-06T05:21:26;101049.88;;;0.25;97.95
80566;BME280;69915;54.862;10.730;2024-01-06T05:23:51;101049.09;;;0.24;98.43
80566;BME280;69915;54.862;10.730;2024-01-06T05:26:17;101066.66;;;0.27;98.20
80566;BME280;69915;54.862;10.730;2024-01-06T05:28:42;101067.28;;;0.22;98.46
80566;BME280;69915;54.862;10.730;2024-01-06T05:31:08;101071.22;;;0.20;98.62
80566;BME280;69915;54.862;10.730;2024-01-06T05:33:33;101066.28;;;0.17;98.95
80566;BME280;69915;54.862;10.730;2024-01-06T05:35:59;101085.94;;;0.17;98.61
80566;BME280;69915;54.862;10.730;2024-01-06T05:38:24;101101.47;;;0.15;98.97
80566;BME280;69915;54.862;10.730;2024-01-06T05:40:50;101088.63;;;0.17;99.19
80566;BME280;69915;54.862;10.730;2024-01-06T05:43:15;101084.28;;;0.16;99.23
80566;BME280;69915;54.862;10.730;2024-01-06T05:45:41;101093.41;;;0.15;99.45
80566;BME280;69915;54.862;10.730;2024-01-06T05:48:10;101114.06;;;0.21;99.58
80566;BME280;69915;54.862;10.730;2024-01-06T05:50:39;101123.75;;;0.22;100.00
80566;BME280;69915;54.862;10.730;2024-01-06T05:53:06;101093.00;;;0.12;99.71
80566;BME280;69915;54.862;10.730;2024-01-06T05:55:32;101115.53;;;0.11;100.00
80566;BME280;69915;54.862;10.730;2024-01-06T05:57:58;101135.78;;;0.13;100.00
80566;BME280;69915;54.862;10.730;2024-01-06T06:00:23;101132.69;;;0.16;100.00
80566;BME280;69915;54.862;10.730;2024-01-06T06:02:49;101127.28;;;0.16;100.00
80566;BME280;69915;54.862;10.730;2024-01-06T06:05:14;101145.09;;;0.17;100.00
80566;BME280;69915;54.862;10.730;2024-01-06T06:07:40;101136.78;;;0.19;100.00
80566;BME280;69915;54.862;10.730;2024-01-06T06:10:07;101140.13;;;0.14;100.00
80566;BME280;69915;54.862;10.730;2024-01-06T06:12:33;101147.81;;;0.11;100.00
80566;BME280;69915;54.862;10.730;2024-01-06T06:14:59;101151.31;;;0.11;100.00
80566;BME280;69915;54.862;10.730;2024-01-06T06:17:24;101136.47;;;0.02;100.00
80566;BME280;69915;54.862;10.730;2024-01-06T06:19:51;101169.16;;;-0.01;100.00
80566;BME280;69915;54.862;10.730;2024-01-06T06:22:16;101148.25;;;0.01;100.00
80566;BME280;69915;54.862;10.730;2024-01-06T06:24:42;101160.69;;;-0.05;100.00
80566;BME280;69915;54.862;10.730;2024-01-06T06:27:08;101162.97;;;-0.08;100.00
80566;BME280;69915;54.862;10.730;2024-01-06T06:29:33;101166.91;;;-0.04;100.00
80566;BME280;69915;54.862;10.730;2024-01-06T06:32:00;101175.78;;;0.03;100.00
80566;BME280;69915;54.862;10.730;2024-01-06T06:34:25;101179.72;;;-0.06;100.00
80566;BME280;69915;54.862;10.730;2024-01-06T06:36:50;101180.75;;;-0.01;100.00
80566;BME280;69915;54.862;10.730;2024-01-06T06:39:16;101198.31;;;-0.05;100.00
80566;BME280;69915;54.862;10.730;2024-01-06T06:41:43;101205.16;;;-0.09;100.00
80566;BME280;69915;54.862;10.730;2024-01-06T06:44:09;101202.25;;;-0.07;100.00
80566;BME280;69915;54.862;10.730;2024-01-06T06:46:36;101221.06;;;-0.07;100.00
80566;BME280;69915;54.862;10.730;2024-01-06T06:49:01;101226.06;;;-0.17;100.00
80566;BME280;69915;54.862;10.730;2024-01-06T06:51:27;101238.03;;;-0.13;100.00
80566;BME280;69915;54.862;10.730;2024-01-06T06:53:54;101236.63;;;-0.16;100.00
80566;BME280;69915;54.862;10.730;2024-01-06T06:56:19;101224.19;;;-0.10;100.00
80566;BME280;69915;54.862;10.730;2024-01-06T06:58:45;101222.34;;;-0.10;100.00
80566;BME280;69915;54.862;10.730;2024-01-06T07:01:10;101258.53;;;-0.19;100.00
80566;BME280;69915;54.862;10.730;2024-01-06T07:03:36;101242.19;;;-0.17;100.00
80566;BME280;69915;54.862;10.730;2024-01-06T07:06:02;101231.44;;;-0.17;100.00
80566;BME280;69915;54.862;10.730;2024-01-06T07:08:28;101259.38;;;-0.25;100.00
80566;BME280;69915;54.862;10.730;2024-01-06T07:10:53;101258.13;;;-0.22;100.00
80566;BME280;69915;54.862;10.730;2024-01-06T07:13:19;101253.59;;;-0.28;100.00
80566;BME280;69915;54.862;10.730;2024-01-06T07:15:44;101254.41;;;-0.28;100.00
80566;BME280;69915;54.862;10.730;2024-01-06T07:18:10;101257.53;;;-0.31;100.00
80566;BME280;69915;54.862;10.730;2024-01-06T07:20:36;101239.50;;;-0.24;100.00
80566;BME280;69915;54.862;10.730;2024-01-06T07:23:02;101239.31;;;-0.22;100.00
80566;BME280;69915;54.862;10.730;2024-01-06T07:25:28;101270.91;;;-0.24;100.00
80566;BME280;69915;54.862;10.730;2024-01-06T07:27:55;101260.59;;;-0.27;100.00
80566;BME280;69915;54.862;10.730;2024-01-06T07:30:20;101267.81;;;-0.21;100.00
80566;BME280;69915;54.862;10.730;2024-01-06T07:32:46;101305.66;;;-0.23;100.00
80566;BME280;69915;54.862;10.730;2024-01-06T07:35:12;101261.84;;;-0.23;100.00
80566;BME280;69915;54.862;10.730;2024-01-06T07:37:39;101298.41;;;-0.22;100.00
80566;BME280;69915;54.862;10.730;2024-01-06T07:40:05;101276.28;;;-0.24;100.00
80566;BME280;69915;54.862;10.730;2024-01-06T07:42:30;101285.19;;;-0.24;100.00
80566;BME280;69915;54.862;10.730;2024-01-06T07:44:57;101287.25;;;-0.19;100.00
80566;BME280;69915;54.862;10.730;2024-01-06T07:47:22;101281.88;;;-0.19;100.00
80566;BME280;69915;54.862;10.730;2024-01-06T07:49:48;101273.22;;;-0.28;100.00
80566;BME280;69915;54.862;10.730;2024-01-06T07:52:13;101307.09;;;-0.33;100.00
80566;BME280;69915;54.862;10.730;2024-01-06T07:54:39;101294.50;;;-0.26;100.00
80566;BME280;69915;54.862;10.730;2024-01-06T07:57:04;101295.75;;;-0.22;100.00
80566;BME280;69915;54.862;10.730;2024-01-06T07:59:30;101320.13;;;-0.17;100.00
80566;BME280;69915;54.862;10.730;2024-01-06T08:01:55;101294.91;;;-0.16;100.00
80566;BME280;69915;54.862;10.730;2024-01-06T08:04:21;101318.88;;;-0.15;100.00
80566;BME280;69915;54.862;10.730;2024-01-06T08:06:46;101326.50;;;-0.18;100.00
80566;BME280;69915;54.862;10.730;2024-01-06T08:09:12;101319.69;;;-0.21;100.00
80566;BME280;69915;54.862;10.730;2024-01-06T08:11:38;101310.59;;;-0.20;100.00
80566;BME280;69915;54.862;10.730;2024-01-06T08:14:04;101335.41;;;-0.18;100.00
80566;BME280;69915;54.862;10.730;2024-01-06T08:16:29;101320.72;;;-0.15;100.00
80566;BME280;69915;54.862;10.730;2024-01-06T08:18:55;101324.47;;;-0.16;100.00
80566;BME280;69915;54.862;10.730;2024-01-06T08:21:20;101346.16;;;-0.24;100.00
80566;BME280;69915;54.862;10.730;2024-01-06T08:23:46;101330.03;;;-0.24;100.00
80566;BME280;69915;54.862;10.730;2024-01-06T08:26:11;101346.56;;;-0.21;100.00
80566;BME280;69915;54.862;10.730;2024-01-06T08:28:37;101308.75;;;-0.19;100.00
80566;BME280;69915;54.862;10.730;2024-01-06T08:31:03;101352.78;;;-0.20;100.00
80566;BME280;69915;54.862;10.730;2024-01-06T08:33:30;101350.28;;;-0.15;100.00
80566;BME280;69915;54.862;10.730;2024-01-06T08:35:55;101360.00;;;-0.14;100.00
80566;BME280;69915;54.862;10.730;2024-01-06T08:38:20;101346.56;;;-0.27;100.00
80566;BME280;69915;54.862;10.730;2024-01-06T08:40:47;101374.25;;;-0.33;99.90
80566;BME280;69915;54.862;10.730;2024-01-06T08:43:15;101361.47;;;-0.31;99.91
80566;BME280;69915;54.862;10.730;2024-01-06T08:45:41;101366.84;;;-0.31;99.85
80566;BME280;69915;54.862;10.730;2024-01-06T08:48:06;101378.00;;;-0.34;99.63
80566;BME280;69915;54.862;10.730;2024-01-06T08:50:32;101380.28;;;-0.31;99.32
80566;BME280;69915;54.862;10.730;2024-01-06T08:52:57;101366.41;;;-0.35;99.02
80566;BME280;69915;54.862;10.730;2024-01-06T08:55:23;101365.78;;;-0.30;98.75
80566;BME280;69915;54.862;10.730;2024-01-06T08:57:48;101380.47;;;-0.26;98.67
80566;BME280;69915;54.862;10.730;2024-01-06T09:00:14;101375.09;;;-0.39;98.04
80566;BME280;69915;54.862;10.730;2024-01-06T09:02:40;101403.19;;;-0.35;97.62
80566;BME280;69915;54.862;10.730;2024-01-06T09:05:06;101400.31;;;-0.34;98.08
80566;BME280;69915;54.862;10.730;2024-01-06T09:07:32;101400.50;;;-0.35;97.64
80566;BME280;69915;54.862;10.730;2024-01-06T09:09:57;101413.13;;;-0.36;97.45
80566;BME280;69915;54.862;10.730;2024-01-06T09:12:23;101401.56;;;-0.43;97.22
80566;BME280;69915;54.862;10.730;2024-01-06T09:18:04;101410.66;;;-0.37;96.62
80566;BME280;69915;54.862;10.730;2024-01-06T09:20:30;101424.69;;;-0.29;95.95
80566;BME280;69915;54.862;10.730;2024-01-06T09:22:55;101412.09;;;-0.35;96.08
80566;BME280;69915;54.862;10.730;2024-01-06T09:25:21;101424.09;;;-0.31;95.57
80566;BME280;69915;54.862;10.730;2024-01-06T09:27:49;101431.53;;;-0.26;95.69
80566;BME280;69915;54.862;10.730;2024-01-06T09:30:16;101428.84;;;-0.26;95.75
80566;BME280;69915;54.862;10.730;2024-01-06T09:32:42;101426.16;;;-0.26;95.34
80566;BME280;69915;54.862;10.730;2024-01-06T09:35:07;101432.16;;;-0.18;95.30
80566;BME280;69915;54.862;10.730;2024-01-06T09:37:33;101450.75;;;-0.16;95.39
80566;BME280;69915;54.862;10.730;2024-01-06T09:39:58;101458.00;;;-0.17;95.03
80566;BME280;69915;54.862;10.730;2024-01-06T09:42:25;101460.28;;;-0.14;94.57
80566;BME280;69915;54.862;10.730;2024-01-06T09:44:50;101460.69;;;-0.10;94.57
80566;BME280;69915;54.862;10.730;2024-01-06T09:47:18;101458.81;;;-0.03;94.65
80566;BME280;69915;54.862;10.730;2024-01-06T09:49:48;101470.41;;;-0.03;94.47
80566;BME280;69915;54.862;10.730;2024-01-06T09:52:15;101468.97;;;-0.05;94.69
80566;BME280;69915;54.862;10.730;2024-01-06T09:54:50;101458.44;;;0.00;94.87
80566;BME280;69915;54.862;10.730;2024-01-06T09:57:16;101467.94;;;-0.04;94.76
80566;BME280;69915;54.862;10.730;2024-01-06T09:59:44;101455.75;;;0.00;94.53
80566;BME280;69915;54.862;10.730;2024-01-06T10:02:12;101476.00;;;-0.04;94.89
80566;BME280;69915;54.862;10.730;2024-01-06T10:04:39;101485.50;;;-0.08;94.90
80566;BME280;69915;54.862;10.730;2024-01-06T10:07:04;101484.47;;;-0.07;94.78
80566;BME280;69915;54.862;10.730;2024-01-06T10:09:30;101484.06;;;-0.04;95.07
80566;BME280;69915;54.862;10.730;2024-01-06T10:11:56;101494.41;;;-0.01;94.94
80566;BME280;69915;54.862;10.730;2024-01-06T10:14:23;101504.91;;;-0.06;95.17
80566;BME280;69915;54.862;10.730;2024-01-06T10:16:50;101503.69;;;-0.10;94.72
80566;BME280;69915;54.862;10.730;2024-01-06T10:19:16;101513.00;;;-0.13;94.60
80566;BME280;69915;54.862;10.730;2024-01-06T10:21:41;101510.28;;;-0.06;94.41
80566;BME280;69915;54.862;10.730;2024-01-06T10:24:08;101490.88;;;-0.08;94.50
80566;BME280;69915;54.862;10.730;2024-01-06T10:26:34;101489.19;;;-0.09;94.48
80566;BME280;69915;54.862;10.730;2024-01-06T10:28:59;101499.13;;;-0.03;94.45
80566;BME280;69915;54.862;10.730;2024-01-06T10:31:25;101489.84;;;-0.07;93.43
80566;BME280;69915;54.862;10.730;2024-01-06T10:33:51;101511.16;;;0.01;93.72
80566;BME280;69915;54.862;10.730;2024-01-06T10:36:17;101498.34;;;0.03;93.12
80566;BME280;69915;54.862;10.730;2024-01-06T10:38:44;101505.34;;;0.04;92.78
80566;BME280;69915;54.862;10.730;2024-01-06T10:41:11;101511.16;;;0.01;92.46
80566;BME280;69915;54.862;10.730;2024-01-06T10:43:37;101501.22;;;-0.05;91.88
80566;BME280;69915;54.862;10.730;2024-01-06T10:46:06;101507.41;;;-0.05;92.34
80566;BME280;69915;54.862;10.730;2024-01-06T10:48:36;101523.72;;;-0.06;92.87
80566;BME280;69915;54.862;10.730;2024-01-06T10:51:04;101510.72;;;-0.03;92.79
80566;BME280;69915;54.862;10.730;2024-01-06T10:53:33;101512.38;;;-0.02;92.61
80566;BME280;69915;54.862;10.730;2024-01-06T10:56:03;101518.78;;;-0.03;92.61
80566;BME280;69915;54.862;10.730;2024-01-06T10:58:30;101514.66;;;0.02;92.46
80566;BME280;69915;54.862;10.730;2024-01-06T11:00:57;101512.41;;;0.05;92.26
80566;BME280;69915;54.862;10.730;2024-01-06T11:03:24;101522.28;;;-0.09;91.98
80566;BME280;69915;54.862;10.730;2024-01-06T11:05:50;101522.50;;;-0.10;91.95
80566;BME280;69915;54.862;10.730;2024-01-06T11:08:17;101530.16;;;-0.14;91.69
80566;BME280;69915;54.862;10.730;2024-01-06T11:10:44;101514.84;;;-0.13;91.86
80566;BME280;69915;54.862;10.730;2024-01-06T11:13:15;101532.63;;;-0.06;91.94
80566;BME280;69915;54.862;10.730;2024-01-06T11:15:52;101538.63;;;-0.17;91.25
80566;BME280;69915;54.862;10.730;2024-01-06T11:18:38;101519.19;;;-0.19;91.30
80566;BME280;69915;54.862;10.730;2024-01-06T11:21:14;101535.13;;;-0.11;91.54
80566;BME280;69915;54.862;10.730;2024-01-06T11:23:42;101521.06;;;-0.13;91.14
80566;BME280;69915;54.862;10.730;2024-01-06T11:26:08;101530.97;;;-0.13;91.40
80566;BME280;69915;54.862;10.730;2024-01-06T11:28:47;101519.41;;;-0.07;91.74
80566;BME280;69915;54.862;10.730;2024-01-06T11:31:13;101533.66;;;-0.13;91.53
80566;BME280;69915;54.862;10.730;2024-01-06T11:33:45;101523.94;;;-0.14;91.48
80566;BME280;69915;54.862;10.730;2024-01-06T11:36:15;101527.66;;;-0.15;91.11
80566;BME280;69915;54.862;10.730;2024-01-06T11:38:40;101554.94;;;-0.12;91.13
80566;BME280;69915;54.862;10.730;2024-01-06T11:41:10;101531.41;;;-0.10;91.28
80566;BME280;69915;54.862;10.730;2024-01-06T11:43:55;101523.34;;;-0.10;90.76
80566;BME280;69915;54.862;10.730;2024-01-06T11:46:21;101527.88;;;-0.10;91.20
80566;BME280;69915;54.862;10.730;2024-01-06T11:48:47;101529.34;;;-0.08;91.41
80566;BME280;69915;54.862;10.730;2024-01-06T11:51:16;101523.72;;;-0.06;91.67
80566;BME280;69915;54.862;10.730;2024-01-06T11:53:44;101534.50;;;-0.06;91.27
80566;BME280;69915;54.862;10.730;2024-01-06T11:56:11;101535.97;;;-0.04;91.46
80566;BME280;69915;54.862;10.730;2024-01-06T11:58:39;101543.81;;;-0.02;91.76
80566;BME280;69915;54.862;10.730;2024-01-06T12:01:04;101537.22;;;0.07;92.14
80566;BME280;69915;54.862;10.730;2024-01-06T12:03:30;101535.34;;;0.08;91.51
80566;BME280;69915;54.862;10.730;2024-01-06T12:06:02;101556.25;;;0.12;91.20
80566;BME280;69915;54.862;10.730;2024-01-06T12:08:28;101524.81;;;0.06;90.42
80566;BME280;69915;54.862;10.730;2024-01-06T12:11:04;101534.34;;;0.15;90.30
80566;BME280;69915;54.862;10.730;2024-01-06T12:13:30;101535.56;;;0.13;90.65
80566;BME280;69915;54.862;10.730;2024-01-06T12:15:56;101532.25;;;0.04;89.82
80566;BME280;69915;54.862;10.730;2024-01-06T12:18:22;101538.66;;;0.03;89.93
80566;BME280;69915;54.862;10.730;2024-01-06T12:20:50;101525.22;;;0.03;89.61
80566;BME280;69915;54.862;10.730;2024-01-06T12:23:28;101535.97;;;0.03;90.11
80566;BME280;69915;54.862;10.730;2024-01-06T12:25:57;101547.16;;;0.00;90.38
80566;BME280;69915;54.862;10.730;2024-01-06T12:28:22;101545.06;;;0.02;90.00
80566;BME280;69915;54.862;10.730;2024-01-06T12:30:48;101552.13;;;0.03;90.33
80566;BME280;69915;54.862;10.730;2024-01-06T12:33:14;101538.84;;;0.02;90.75
80566;BME280;69915;54.862;10.730;2024-01-06T12:35:39;101553.13;;;0.02;90.61
80566;BME280;69915;54.862;10.730;2024-01-06T12:38:08;101555.59;;;-0.03;90.69
80566;BME280;69915;54.862;10.730;2024-01-06T12:40:35;101557.91;;;0.00;91.02